Archival Weather

Chicago O'Hare International

Chicago, Illinois (KORD)

Report from: Wednesday, July 19, 2023 6:51 PM CDT
Current time: Wednesday, April 24, 2024 1:05 PM CDT

Current weather – Weather history – Daily summaries
Weather forecast

Temperature28.3°C (82.9°F)
Heat index28.0°C (82.4°F)
Dew point12.2°C (54.0°F)
Winds 7 kts (3.6 m/s, 8.1 mph) West-Southwest (240°)
Visibility10 mi. (16.1 km)
Clouds Few clouds 12,000 ft. (3,658 m)
Ceiling: Broken clouds 25,000 ft. (7,620 m)
Broken clouds 30,000 ft. (9,144 m)
Altimeter29.99 in.Hg (1016 mB)
Relative humidity37 %
Density altitude1,668 ft. (508 m)
Sea-level pressure101.5 kPa (1015 mB, 29.98 in.Hg)
Max temp last 6 hours30.0°C (86.0°F)
Min temp last 6 hours27.8°C (82.0°F)
Remarks Automated weather observing station with precipitation discriminator
Pressure falling, then rising
Flight conditions Visual Meteorological Conditions
Raw dataKORD 192351Z 24007KT 10SM FEW120 BKN250 BKN300 28/12 A2999 RMK AO2 SLP151 T02830122 10300 20278 55006
An error has occurred. This application may no longer respond until reloaded. Reload 🗙